Amuleth — 5BTE4 — position and weather

sailwx.info

Track history (hours):
 
Tides and Currents Weather Stations Pressure Air Temp Water Temp Dewpoint Dewpoint Depression Visibility Wind Speed Wind Dir Waves Ship Positions

Amuleth

Last reported at 2018-Apr-26 06:35 UTC. Time now 2018-Apr-26 11:36 UTC.
Position N 52°45' W 005°23'.

Length 102 m; draft 6.9 m.

Type: Ship (hazmat cat B). MMSI: 209066000.

Date/timePositionNaut miles runAvg speedWind from/ knotsBaromVisibWave heightAir tempDewpointWater temp
2018-Apr-26 06:35N 52°45' W 005°23'1 9.1
2018-Apr-26 06:26N 52°46' W 005°22'5 9.1
2018-Apr-26 05:54N 52°51' W 005°20'75 9.4
2018-Apr-25 21:53N 53°34' W 003°37'411.7
2018-Apr-25 21:30N 53°33' W 003°30'510.6
2018-Apr-25 21:01N 53°32' W 003°21'5 9.1
2018-Apr-25 20:31N 53°31' W 003°14'510.0
2018-Apr-25 20:00N 53°30' W 003°05'510.2
2018-Apr-25 19:30N 53°26' W 003°01'5 9.6
2018-Apr-25 19:00N 53°21' W 002°58'2 4.0
2018-Apr-25 18:30N 53°19' W 002°57'0 0.0
2018-Apr-24 20:15N 53°19' W 002°57'0 0.1
2018-Apr-24 20:00N 53°19' W 002°57'0 0.3
2018-Apr-24 19:30N 53°19' W 002°57'0 0.8
2018-Apr-24 19:00N 53°20' W 002°57'2 3.8
2018-Apr-24 18:30N 53°22' W 002°58'3 6.4
2018-Apr-24 18:00N 53°25' W 003°01'510.5
2018-Apr-24 17:30N 53°29' W 003°05'5 9.3
2018-Apr-24 17:00N 53°31' W 003°12'4 8.6
2018-Apr-24 16:30N 53°31' W 003°19'3 5.9
2018-Apr-24 16:00N 53°29' W 003°23'1 1.9
2018-Apr-24 15:25N 53°28' W 003°22'0 0.0
2018-Apr-24 14:58N 53°28' W 003°22'0 0.1
2018-Apr-24 14:28N 53°28' W 003°22'0 0.0
2018-Apr-24 13:58N 53°28' W 003°22'1 1.2
2018-Apr-24 13:30N 53°29' W 003°23'4 8.8
2018-Apr-24 13:00N 53°31' W 003°30'611.6
2018-Apr-24 12:30N 53°31' W 003°40'611.5
2018-Apr-24 12:00N 53°31' W 003°49'611.3
2018-Apr-24 11:30N 53°31' W 003°59'12510.4
2018-Apr-23 23:29N 51°44' W 005°48'1111.1
2018-Apr-23 22:28N 51°33' W 005°51'510.6
2018-Apr-23 21:59N 51°28' W 005°51'510.5
2018-Apr-23 21:30N 51°23' W 005°51'810.6
2018-Apr-23 20:44N 51°15' W 005°51'4810.9
2018-Apr-23 16:22N 50°27' W 005°53'411.0
2018-Apr-23 16:00N 50°23' W 005°53'810.8
2018-Apr-23 15:13N 50°15' W 005°54'310.7
2018-Apr-23 14:54N 50°11' W 005°53'410.6
2018-Apr-23 14:30N 50°07' W 005°53'510.6
2018-Apr-23 14:00N 50°02' W 005°53'57 9.7
2018-Apr-23 08:05N 49°55' W 004°25'311.2
2018-Apr-23 07:47N 49°55' W 004°20'311.3
2018-Apr-23 07:29N 49°55' W 004°14'911.6
2018-Apr-23 06:45N 49°56' W 004°01'311.8
2018-Apr-23 06:28N 49°56' W 003°56'711.9
2018-Apr-23 05:55N 49°56' W 003°46'512.0
2018-Apr-23 05:30N 49°57' W 003°38'611.9
2018-Apr-23 05:00N 49°57' W 003°29'611.7
2018-Apr-23 04:30N 49°58' W 003°20'611.4
2018-Apr-23 03:57N 49°59' W 003°10'511.1
2018-Apr-23 03:30N 49°59' W 003°02'510.7
2018-Apr-23 03:00N 50°00' W 002°54'610.4
2018-Apr-23 02:28N 50°02' W 002°46'24 9.3
2018-Apr-22 23:53N 50°08' W 002°10'4 9.0
2018-Apr-22 23:29N 50°09' W 002°04'5 9.4
2018-Apr-22 22:59N 50°10' W 001°58'5 9.7
2018-Apr-22 22:30N 50°11' W 001°50'510.4
2018-Apr-22 22:00N 50°13' W 001°43'711.1
2018-Apr-22 21:25N 50°14' W 001°33'511.8
2018-Apr-22 20:59N 50°16' W 001°25'1512.8
2018-Apr-22 19:47N 50°20' W 001°02'413.8
2018-Apr-22 19:30N 50°21' W 000°56'713.3
2018-Apr-22 19:00N 50°23' W 000°46'612.8
2018-Apr-22 18:30N 50°24' W 000°36'612.6
2018-Apr-22 18:00N 50°26' W 000°27'612.1
2018-Apr-22 17:30N 50°28' W 000°18'611.8
2018-Apr-22 17:00N 50°29' W 000°09'611.2
2018-Apr-22 16:31N 50°31' W 000°01'610.8
2018-Apr-22 16:00N 50°33' E 000°08'510.6
2018-Apr-22 15:30N 50°34' E 000°16'510.3
2018-Apr-22 15:01N 50°36' E 000°23'510.0
2018-Apr-22 14:30N 50°37' E 000°31'5 9.6
2018-Apr-22 14:01N 50°39' E 000°38'5 9.7
2018-Apr-22 13:31N 50°42' E 000°44'510.2
2018-Apr-22 13:01N 50°45' E 000°50'510.7
2018-Apr-22 12:31N 50°48' E 000°57'611.5
2018-Apr-22 12:00N 50°52' E 001°04'612.3
2018-Apr-22 11:31N 50°56' E 001°12'713.1
2018-Apr-22 11:00N 51°00' E 001°20'713.4
2018-Apr-22 10:30N 51°04' E 001°28'612.7
2018-Apr-22 10:00N 51°08' E 001°35'611.9
2018-Apr-22 09:30N 51°12' E 001°43'611.4
2018-Apr-22 09:01N 51°17' E 001°48'510.9
2018-Apr-22 08:31N 51°21' E 001°53'510.2
2018-Apr-22 08:00N 51°25' E 001°59'510.8
2018-Apr-22 07:31N 51°23' E 002°07'611.3
2018-Apr-22 07:01N 51°21' E 002°16'510.4
2018-Apr-22 06:31N 51°22' E 002°24'510.1
2018-Apr-22 06:01N 51°23' E 002°32'510.2
2018-Apr-22 05:31N 51°23' E 002°40'510.0
2018-Apr-22 04:59N 51°22' E 002°48'510.1
2018-Apr-22 04:30N 51°23' E 002°56'5 9.7
2018-Apr-22 03:59N 51°24' E 003°04'5 9.4
2018-Apr-22 03:30N 51°24' E 003°11'5 9.1
2018-Apr-22 03:00N 51°25' E 003°18'510.0
2018-Apr-22 02:30N 51°25' E 003°26'510.3
2018-Apr-22 02:01N 51°26' E 003°34'4 8.6
2018-Apr-22 01:31N 51°26' E 003°41'510.5
2018-Apr-22 01:01N 51°22' E 003°46'611.3
2018-Apr-22 00:31N 51°22' E 003°55'510.4
2018-Apr-22 00:00N 51°26' E 004°01'511.2
2018-Apr-21 23:30N 51°22' E 004°08'5 9.4
2018-Apr-21 23:00N 51°21' E 004°16'4 8.7
2018-Apr-21 22:30N 51°17' E 004°15'0 0.0
2018-Apr-21 22:00N 51°17' E 004°15'1 1.4
2018-Apr-21 21:30N 51°17' E 004°14'0 0.0
2018-Apr-20 00:25N 51°17' E 004°14'0 0.0
2018-Apr-19 23:58N 51°17' E 004°14'0 0.3
2018-Apr-19 23:30N 51°17' E 004°14'2 4.0
2018-Apr-19 23:00N 51°16' E 004°17'0 0.0
2018-Apr-19 22:30N 51°16' E 004°17'0 0.3
2018-Apr-19 22:00N 51°16' E 004°17'2 4.0
2018-Apr-19 21:30N 51°18' E 004°19'4 8.4
2018-Apr-19 21:00N 51°21' E 004°15'4 7.5
2018-Apr-19 20:30N 51°24' E 004°11'4 8.2
2018-Apr-19 20:00N 51°22' E 004°04'4 7.6
2018-Apr-19 19:30N 51°26' E 004°01'3 6.4
2018-Apr-19 19:00N 51°24' E 003°57'4 8.4
2018-Apr-19 18:30N 51°21' E 003°52'5 9.0
2018-Apr-19 18:00N 51°22' E 003°45'5 9.6
2018-Apr-19 17:30N 51°25' E 003°39'4 8.5
2018-Apr-19 17:00N 51°25' E 003°33'612.7
2018-Apr-19 16:30N 51°24' E 003°23'713.1
2018-Apr-19 16:00N 51°23' E 003°12'713.6
2018-Apr-19 15:30N 51°22' E 003°02'713.3
2018-Apr-19 15:01N 51°22' E 002°51'612.1
2018-Apr-19 14:30N 51°22' E 002°41'4 8.2
2018-Apr-19 13:59N 51°21' E 002°34'2 3.1
2018-Apr-19 13:26N 51°20' E 002°32'0 0.1
2018-Apr-19 12:59N 51°20' E 002°32'0 0.2
2018-Apr-19 12:29N 51°20' E 002°32'0 0.0
2018-Apr-19 11:05N 51°20' E 002°32'0 0.0
2018-Apr-19 10:59N 51°20' E 002°32'0 0.0
2018-Apr-19 10:23N 51°20' E 002°32'0 0.0
2018-Apr-19 09:59N 51°20' E 002°32'0 0.0
2018-Apr-19 09:20N 51°20' E 002°32'0 0.0
2018-Apr-19 08:59N 51°20' E 002°32'0 0.0
2018-Apr-19 08:29N 51°20' E 002°32'0 0.1
2018-Apr-19 07:56N 51°20' E 002°32'0 0.0
2018-Apr-19 07:26N 51°20' E 002°32'0 0.0
2018-Apr-19 06:59N 51°20' E 002°32'0 0.0
2018-Apr-19 06:26N 51°20' E 002°32'0 0.0
2018-Apr-19 05:59N 51°20' E 002°32'0 0.1
2018-Apr-19 05:26N 51°20' E 002°32'0 0.0
2018-Apr-19 04:59N 51°20' E 002°32'0 0.0
2018-Apr-19 04:29N 51°20' E 002°32'0 0.0
2018-Apr-19 03:59N 51°20' E 002°32'0 0.0
2018-Apr-19 03:29N 51°20' E 002°32'0 0.0
2018-Apr-19 02:59N 51°20' E 002°32'0 0.0
2018-Apr-19 02:29N 51°20' E 002°32'0 0.0
2018-Apr-19 01:59N 51°20' E 002°32'0 0.0
2018-Apr-19 01:29N 51°20' E 002°32'0 0.0
2018-Apr-19 00:59N 51°20' E 002°32'0 0.2
2018-Apr-19 00:29N 51°20' E 002°32'0 0.1
2018-Apr-18 23:59N 51°20' E 002°32'0 0.0
2018-Apr-18 23:29N 51°20' E 002°32'0 0.0
2018-Apr-18 22:56N 51°20' E 002°32'0 0.0
2018-Apr-18 22:29N 51°20' E 002°32'0 0.0
2018-Apr-18 21:59N 51°20' E 002°32'0 0.0
2018-Apr-18 21:29N 51°20' E 002°32'0 0.0
2018-Apr-18 20:59N 51°20' E 002°32'0 0.0
2018-Apr-18 20:29N 51°20' E 002°32'0 0.0
2018-Apr-18 19:59N 51°20' E 002°32'0 0.0
2018-Apr-18 19:26N 51°20' E 002°32'0 0.0
2018-Apr-18 18:59N 51°20' E 002°32'0 0.0
2018-Apr-18 18:29N 51°20' E 002°32'0 0.0
2018-Apr-18 17:59N 51°20' E 002°32'0 0.0
2018-Apr-18 17:29N 51°20' E 002°32'0 0.1
2018-Apr-18 16:56N 51°20' E 002°32'0 0.0
2018-Apr-18 16:29N 51°20' E 002°32'0 0.0
2018-Apr-18 15:59N 51°20' E 002°32'0 0.1
2018-Apr-18 15:29N 51°20' E 002°32'0 0.0
2018-Apr-18 14:59N 51°20' E 002°32'0 0.1
2018-Apr-18 14:29N 51°20' E 002°32'0 0.1
2018-Apr-18 13:59N 51°20' E 002°32'0 0.1
2018-Apr-18 13:29N 51°20' E 002°32'0 0.0
2018-Apr-18 12:59N 51°20' E 002°32'0 0.1
2018-Apr-18 12:29N 51°20' E 002°32'0 0.2
2018-Apr-18 11:59N 51°20' E 002°32'0 0.1
2018-Apr-18 11:29N 51°20' E 002°32'0 0.0
2018-Apr-18 10:56N 51°20' E 002°32'0 0.0
2018-Apr-18 10:29N 51°20' E 002°32'0 0.0
2018-Apr-18 09:59N 51°20' E 002°32'0 0.1
2018-Apr-18 09:30N 51°20' E 002°32'2 3.4
2018-Apr-18 09:00N 51°22' E 002°30'4 7.2
2018-Apr-18 08:30N 51°20' E 002°25'4 7.5
2018-Apr-18 08:00N 51°19' E 002°19'4 7.9
2018-Apr-18 07:30N 51°17' E 002°14'4 8.5
2018-Apr-18 07:00N 51°15' E 002°08'4 8.8
2018-Apr-18 06:30N 51°13' E 002°02'4 9.0
2018-Apr-18 06:00N 51°10' E 001°55'5 9.3
2018-Apr-18 05:30N 51°08' E 001°49'4 8.6
2018-Apr-18 05:00N 51°05' E 001°44'4 8.7
2018-Apr-18 04:30N 51°02' E 001°40'5 9.1
2018-Apr-18 04:00N 50°58' E 001°35'5 9.3
2018-Apr-18 03:30N 50°54' E 001°31'11 8.9
2018-Apr-18 02:15N 50°44' E 001°23'12 9.2
2018-Apr-18 00:59N 50°36' E 001°11'4810.2
2018-Apr-17 20:18N 50°16' E 000°02'311.0
2018-Apr-17 20:00N 50°13' E 000°00'6 9.8
2018-Apr-17 19:27N 50°08' W 000°03'4 9.0
2018-Apr-17 19:00N 50°05' W 000°05'4 8.9
2018-Apr-17 18:30N 50°01' W 000°08'4 8.7
2018-Apr-17 18:00N 49°57' W 000°11'5 9.3
2018-Apr-17 17:30N 49°53' W 000°16'4 8.7
2018-Apr-17 17:00N 49°50' W 000°20'4 8.7
2018-Apr-17 16:30N 49°46' W 000°23'510.7
2018-Apr-17 16:00N 49°41' W 000°26'612.8
2018-Apr-17 15:30N 49°36' W 000°21'713.2
2018-Apr-17 15:00N 49°31' W 000°13'612.8
2018-Apr-17 14:30N 49°29' W 000°04'612.3
2018-Apr-17 14:00N 49°26' E 000°04'713.2
2018-Apr-17 13:30N 49°26' E 000°14'612.8
2018-Apr-17 13:01N 49°27' E 000°24'510.2
2018-Apr-17 12:31N 49°29' E 000°31'5 9.0
2018-Apr-17 12:00N 49°26' E 000°36'4 8.9
2018-Apr-17 11:30N 49°29' E 000°40'4 7.1
2018-Apr-17 11:00N 49°31' E 000°45'4 8.6
2018-Apr-17 10:31N 49°28' E 000°49'4 8.1
2018-Apr-17 10:00N 49°24' E 000°49'3 6.9
2018-Apr-17 09:30N 49°27' E 000°51'3 6.3
2018-Apr-17 09:01N 49°27' E 000°56'611.1
2018-Apr-17 08:30N 49°21' E 000°58'3 5.6
2018-Apr-17 07:58N 49°23' E 001°01'0 0.0
2018-Apr-17 07:22N 49°23' E 001°01'0 0.0
2018-Apr-17 06:58N 49°23' E 001°01'0 0.0
2018-Apr-17 06:28N 49°23' E 001°01'0 0.0
2018-Apr-17 05:58N 49°23' E 001°01'0 0.0
2018-Apr-17 05:28N 49°23' E 001°01'0 0.0
2018-Apr-17 04:58N 49°23' E 001°01'0 0.0
2018-Apr-17 04:28N 49°23' E 001°01'0 0.0
2018-Apr-17 03:58N 49°23' E 001°01'0 0.0
2018-Apr-17 03:28N 49°23' E 001°01'0 0.0
2018-Apr-17 02:58N 49°23' E 001°01'0 0.0
2018-Apr-17 02:22N 49°23' E 001°01'0 0.0
2018-Apr-17 01:58N 49°23' E 001°01'0 0.0
2018-Apr-17 01:28N 49°23' E 001°01'0 0.0
2018-Apr-17 00:52N 49°23' E 001°01'0 0.0
2018-Apr-17 00:25N 49°23' E 001°01'0 0.0
2018-Apr-16 23:58N 49°23' E 001°01'0 0.0
2018-Apr-16 23:28N 49°23' E 001°01'0 0.0
2018-Apr-16 22:58N 49°23' E 001°01'0 0.0
2018-Apr-16 22:28N 49°23' E 001°01'0 0.0
2018-Apr-16 21:58N 49°23' E 001°01'0 0.0
2018-Apr-16 21:28N 49°23' E 001°01'0 0.0
2018-Apr-16 20:58N 49°23' E 001°01'0 0.0
2018-Apr-16 20:28N 49°23' E 001°01'0 0.0
2018-Apr-16 19:58N 49°23' E 001°01'0 0.0
2018-Apr-16 19:28N 49°23' E 001°01'0 0.0
2018-Apr-16 18:58N 49°23' E 001°01'0 0.0
2018-Apr-16 18:28N 49°23' E 001°01'0 0.0
2018-Apr-16 17:55N 49°23' E 001°01'0 0.0
2018-Apr-16 17:28N 49°23' E 001°01'0 0.0
2018-Apr-16 16:58N 49°23' E 001°01'0 0.0
2018-Apr-16 16:28N 49°23' E 001°01'0 0.0
2018-Apr-16 15:58N 49°23' E 001°01'0 0.0
2018-Apr-16 15:28N 49°23' E 001°01'0 0.0
2018-Apr-16 14:58N 49°23' E 001°01'0 0.0
2018-Apr-16 14:22N 49°23' E 001°01'0 0.0
2018-Apr-16 13:58N 49°23' E 001°01'0 0.0
2018-Apr-16 13:28N 49°23' E 001°01'0 0.0
2018-Apr-16 12:58N 49°23' E 001°01'0 0.0
2018-Apr-16 12:28N 49°23' E 001°01'0 0.0
2018-Apr-16 11:58N 49°23' E 001°01'0 0.2
2018-Apr-16 11:31N 49°24' E 001°01'3 6.1
2018-Apr-16 11:00N 49°21' E 000°57'510.0
2018-Apr-16 10:30N 49°26' E 000°56'4 7.2
2018-Apr-16 10:00N 49°28' E 000°51'4 7.8
2018-Apr-16 09:30N 49°24' E 000°49'510.8
2018-Apr-16 09:00N 49°30' E 000°46'4 8.2
2018-Apr-16 08:30N 49°30' E 000°40'5 9.9
2018-Apr-16 08:00N 49°27' E 000°34'5 9.8
2018-Apr-16 07:30N 49°28' E 000°26'714.1
2018-Apr-16 07:00N 49°26' E 000°16'  
Track history (hours):
 
Tides and Currents Weather Stations Pressure Air Temp Water Temp Dewpoint Dewpoint Depression Visibility Wind Speed Wind Dir Waves Ship Positions

Amuleth

Last reported at 2018-Apr-26 06:35 UTC. Time now 2018-Apr-26 11:36 UTC.
Position N 52°45' W 005°23'.

Length 102 m; draft 6.9 m.

Type: Ship (hazmat cat B). MMSI: 209066000.

Date/timePositionNaut miles runAvg speedWind from/ knotsBaromVisibWave heightAir tempDewpointWater temp
2018-Apr-26 06:35N 52°45' W 005°23'1 9.1
2018-Apr-26 06:26N 52°46' W 005°22'5 9.1
2018-Apr-26 05:54N 52°51' W 005°20'75 9.4
2018-Apr-25 21:53N 53°34' W 003°37'411.7
2018-Apr-25 21:30N 53°33' W 003°30'510.6
2018-Apr-25 21:01N 53°32' W 003°21'5 9.1
2018-Apr-25 20:31N 53°31' W 003°14'510.0
2018-Apr-25 20:00N 53°30' W 003°05'510.2
2018-Apr-25 19:30N 53°26' W 003°01'5 9.6
2018-Apr-25 19:00N 53°21' W 002°58'2 4.0
2018-Apr-25 18:30N 53°19' W 002°57'0 0.0
2018-Apr-24 20:15N 53°19' W 002°57'0 0.1
2018-Apr-24 20:00N 53°19' W 002°57'0 0.3
2018-Apr-24 19:30N 53°19' W 002°57'0 0.8
2018-Apr-24 19:00N 53°20' W 002°57'2 3.8
2018-Apr-24 18:30N 53°22' W 002°58'3 6.4
2018-Apr-24 18:00N 53°25' W 003°01'510.5
2018-Apr-24 17:30N 53°29' W 003°05'5 9.3
2018-Apr-24 17:00N 53°31' W 003°12'4 8.6
2018-Apr-24 16:30N 53°31' W 003°19'3 5.9
2018-Apr-24 16:00N 53°29' W 003°23'1 1.9
2018-Apr-24 15:25N 53°28' W 003°22'0 0.0
2018-Apr-24 14:58N 53°28' W 003°22'0 0.1
2018-Apr-24 14:28N 53°28' W 003°22'0 0.0
2018-Apr-24 13:58N 53°28' W 003°22'1 1.2
2018-Apr-24 13:30N 53°29' W 003°23'4 8.8
2018-Apr-24 13:00N 53°31' W 003°30'611.6
2018-Apr-24 12:30N 53°31' W 003°40'611.5
2018-Apr-24 12:00N 53°31' W 003°49'611.3
2018-Apr-24 11:30N 53°31' W 003°59'12510.4
2018-Apr-23 23:29N 51°44' W 005°48'1111.1
2018-Apr-23 22:28N 51°33' W 005°51'510.6
2018-Apr-23 21:59N 51°28' W 005°51'510.5
2018-Apr-23 21:30N 51°23' W 005°51'810.6
2018-Apr-23 20:44N 51°15' W 005°51'4810.9
2018-Apr-23 16:22N 50°27' W 005°53'411.0
2018-Apr-23 16:00N 50°23' W 005°53'810.8
2018-Apr-23 15:13N 50°15' W 005°54'310.7
2018-Apr-23 14:54N 50°11' W 005°53'410.6
2018-Apr-23 14:30N 50°07' W 005°53'510.6
2018-Apr-23 14:00N 50°02' W 005°53'57 9.7
2018-Apr-23 08:05N 49°55' W 004°25'311.2
2018-Apr-23 07:47N 49°55' W 004°20'311.3
2018-Apr-23 07:29N 49°55' W 004°14'911.6
2018-Apr-23 06:45N 49°56' W 004°01'311.8
2018-Apr-23 06:28N 49°56' W 003°56'711.9
2018-Apr-23 05:55N 49°56' W 003°46'512.0
2018-Apr-23 05:30N 49°57' W 003°38'611.9
2018-Apr-23 05:00N 49°57' W 003°29'611.7
2018-Apr-23 04:30N 49°58' W 003°20'611.4
2018-Apr-23 03:57N 49°59' W 003°10'511.1
2018-Apr-23 03:30N 49°59' W 003°02'510.7
2018-Apr-23 03:00N 50°00' W 002°54'610.4
2018-Apr-23 02:28N 50°02' W 002°46'24 9.3
2018-Apr-22 23:53N 50°08' W 002°10'4 9.0
2018-Apr-22 23:29N 50°09' W 002°04'5 9.4
2018-Apr-22 22:59N 50°10' W 001°58'5 9.7
2018-Apr-22 22:30N 50°11' W 001°50'510.4
2018-Apr-22 22:00N 50°13' W 001°43'711.1
2018-Apr-22 21:25N 50°14' W 001°33'511.8
2018-Apr-22 20:59N 50°16' W 001°25'1512.8
2018-Apr-22 19:47N 50°20' W 001°02'413.8
2018-Apr-22 19:30N 50°21' W 000°56'713.3
2018-Apr-22 19:00N 50°23' W 000°46'612.8
2018-Apr-22 18:30N 50°24' W 000°36'612.6
2018-Apr-22 18:00N 50°26' W 000°27'612.1
2018-Apr-22 17:30N 50°28' W 000°18'611.8
2018-Apr-22 17:00N 50°29' W 000°09'611.2
2018-Apr-22 16:31N 50°31' W 000°01'610.8
2018-Apr-22 16:00N 50°33' E 000°08'510.6
2018-Apr-22 15:30N 50°34' E 000°16'510.3
2018-Apr-22 15:01N 50°36' E 000°23'510.0
2018-Apr-22 14:30N 50°37' E 000°31'5 9.6
2018-Apr-22 14:01N 50°39' E 000°38'5 9.7
2018-Apr-22 13:31N 50°42' E 000°44'510.2
2018-Apr-22 13:01N 50°45' E 000°50'510.7
2018-Apr-22 12:31N 50°48' E 000°57'611.5
2018-Apr-22 12:00N 50°52' E 001°04'612.3
2018-Apr-22 11:31N 50°56' E 001°12'713.1
2018-Apr-22 11:00N 51°00' E 001°20'713.4
2018-Apr-22 10:30N 51°04' E 001°28'612.7
2018-Apr-22 10:00N 51°08' E 001°35'611.9
2018-Apr-22 09:30N 51°12' E 001°43'611.4
2018-Apr-22 09:01N 51°17' E 001°48'510.9
2018-Apr-22 08:31N 51°21' E 001°53'510.2
2018-Apr-22 08:00N 51°25' E 001°59'510.8
2018-Apr-22 07:31N 51°23' E 002°07'611.3
2018-Apr-22 07:01N 51°21' E 002°16'510.4
2018-Apr-22 06:31N 51°22' E 002°24'510.1
2018-Apr-22 06:01N 51°23' E 002°32'510.2
2018-Apr-22 05:31N 51°23' E 002°40'510.0
2018-Apr-22 04:59N 51°22' E 002°48'510.1
2018-Apr-22 04:30N 51°23' E 002°56'5 9.7
2018-Apr-22 03:59N 51°24' E 003°04'5 9.4
2018-Apr-22 03:30N 51°24' E 003°11'5 9.1
2018-Apr-22 03:00N 51°25' E 003°18'510.0
2018-Apr-22 02:30N 51°25' E 003°26'510.3
2018-Apr-22 02:01N 51°26' E 003°34'4 8.6
2018-Apr-22 01:31N 51°26' E 003°41'510.5
2018-Apr-22 01:01N 51°22' E 003°46'611.3
2018-Apr-22 00:31N 51°22' E 003°55'510.4
2018-Apr-22 00:00N 51°26' E 004°01'511.2
2018-Apr-21 23:30N 51°22' E 004°08'5 9.4
2018-Apr-21 23:00N 51°21' E 004°16'4 8.7
2018-Apr-21 22:30N 51°17' E 004°15'0 0.0
2018-Apr-21 22:00N 51°17' E 004°15'1 1.4
2018-Apr-21 21:30N 51°17' E 004°14'0 0.0
2018-Apr-20 00:25N 51°17' E 004°14'0 0.0
2018-Apr-19 23:58N 51°17' E 004°14'0 0.3
2018-Apr-19 23:30N 51°17' E 004°14'2 4.0
2018-Apr-19 23:00N 51°16' E 004°17'0 0.0
2018-Apr-19 22:30N 51°16' E 004°17'0 0.3
2018-Apr-19 22:00N 51°16' E 004°17'2 4.0
2018-Apr-19 21:30N 51°18' E 004°19'4 8.4
2018-Apr-19 21:00N 51°21' E 004°15'4 7.5
2018-Apr-19 20:30N 51°24' E 004°11'4 8.2
2018-Apr-19 20:00N 51°22' E 004°04'4 7.6
2018-Apr-19 19:30N 51°26' E 004°01'3 6.4
2018-Apr-19 19:00N 51°24' E 003°57'4 8.4
2018-Apr-19 18:30N 51°21' E 003°52'5 9.0
2018-Apr-19 18:00N 51°22' E 003°45'5 9.6
2018-Apr-19 17:30N 51°25' E 003°39'4 8.5
2018-Apr-19 17:00N 51°25' E 003°33'612.7
2018-Apr-19 16:30N 51°24' E 003°23'713.1
2018-Apr-19 16:00N 51°23' E 003°12'713.6
2018-Apr-19 15:30N 51°22' E 003°02'713.3
2018-Apr-19 15:01N 51°22' E 002°51'612.1
2018-Apr-19 14:30N 51°22' E 002°41'4 8.2
2018-Apr-19 13:59N 51°21' E 002°34'2 3.1
2018-Apr-19 13:26N 51°20' E 002°32'0 0.1
2018-Apr-19 12:59N 51°20' E 002°32'0 0.2
2018-Apr-19 12:29N 51°20' E 002°32'0 0.0
2018-Apr-19 11:05N 51°20' E 002°32'0 0.0
2018-Apr-19 10:59N 51°20' E 002°32'0 0.0
2018-Apr-19 10:23N 51°20' E 002°32'0 0.0
2018-Apr-19 09:59N 51°20' E 002°32'0 0.0
2018-Apr-19 09:20N 51°20' E 002°32'0 0.0
2018-Apr-19 08:59N 51°20' E 002°32'0 0.0
2018-Apr-19 08:29N 51°20' E 002°32'0 0.1
2018-Apr-19 07:56N 51°20' E 002°32'0 0.0
2018-Apr-19 07:26N 51°20' E 002°32'0 0.0
2018-Apr-19 06:59N 51°20' E 002°32'0 0.0
2018-Apr-19 06:26N 51°20' E 002°32'0 0.0
2018-Apr-19 05:59N 51°20' E 002°32'0 0.1
2018-Apr-19 05:26N 51°20' E 002°32'0 0.0
2018-Apr-19 04:59N 51°20' E 002°32'0 0.0
2018-Apr-19 04:29N 51°20' E 002°32'0 0.0
2018-Apr-19 03:59N 51°20' E 002°32'0 0.0
2018-Apr-19 03:29N 51°20' E 002°32'0 0.0
2018-Apr-19 02:59N 51°20' E 002°32'0 0.0
2018-Apr-19 02:29N 51°20' E 002°32'0 0.0
2018-Apr-19 01:59N 51°20' E 002°32'0 0.0
2018-Apr-19 01:29N 51°20' E 002°32'0 0.0
2018-Apr-19 00:59N 51°20' E 002°32'0 0.2
2018-Apr-19 00:29N 51°20' E 002°32'0 0.1
2018-Apr-18 23:59N 51°20' E 002°32'0 0.0
2018-Apr-18 23:29N 51°20' E 002°32'0 0.0
2018-Apr-18 22:56N 51°20' E 002°32'0 0.0
2018-Apr-18 22:29N 51°20' E 002°32'0 0.0
2018-Apr-18 21:59N 51°20' E 002°32'0 0.0
2018-Apr-18 21:29N 51°20' E 002°32'0 0.0
2018-Apr-18 20:59N 51°20' E 002°32'0 0.0
2018-Apr-18 20:29N 51°20' E 002°32'0 0.0
2018-Apr-18 19:59N 51°20' E 002°32'0 0.0
2018-Apr-18 19:26N 51°20' E 002°32'0 0.0
2018-Apr-18 18:59N 51°20' E 002°32'0 0.0
2018-Apr-18 18:29N 51°20' E 002°32'0 0.0
2018-Apr-18 17:59N 51°20' E 002°32'0 0.0
2018-Apr-18 17:29N 51°20' E 002°32'0 0.1
2018-Apr-18 16:56N 51°20' E 002°32'0 0.0
2018-Apr-18 16:29N 51°20' E 002°32'0 0.0
2018-Apr-18 15:59N 51°20' E 002°32'0 0.1
2018-Apr-18 15:29N 51°20' E 002°32'0 0.0
2018-Apr-18 14:59N 51°20' E 002°32'0 0.1
2018-Apr-18 14:29N 51°20' E 002°32'0 0.1
2018-Apr-18 13:59N 51°20' E 002°32'0 0.1
2018-Apr-18 13:29N 51°20' E 002°32'0 0.0
2018-Apr-18 12:59N 51°20' E 002°32'0 0.1
2018-Apr-18 12:29N 51°20' E 002°32'0 0.2
2018-Apr-18 11:59N 51°20' E 002°32'0 0.1
2018-Apr-18 11:29N 51°20' E 002°32'0 0.0
2018-Apr-18 10:56N 51°20' E 002°32'0 0.0
2018-Apr-18 10:29N 51°20' E 002°32'0 0.0
2018-Apr-18 09:59N 51°20' E 002°32'0 0.1
2018-Apr-18 09:30N 51°20' E 002°32'2 3.4
2018-Apr-18 09:00N 51°22' E 002°30'4 7.2
2018-Apr-18 08:30N 51°20' E 002°25'4 7.5
2018-Apr-18 08:00N 51°19' E 002°19'4 7.9
2018-Apr-18 07:30N 51°17' E 002°14'4 8.5
2018-Apr-18 07:00N 51°15' E 002°08'4 8.8
2018-Apr-18 06:30N 51°13' E 002°02'4 9.0
2018-Apr-18 06:00N 51°10' E 001°55'5 9.3
2018-Apr-18 05:30N 51°08' E 001°49'4 8.6
2018-Apr-18 05:00N 51°05' E 001°44'4 8.7
2018-Apr-18 04:30N 51°02' E 001°40'5 9.1
2018-Apr-18 04:00N 50°58' E 001°35'5 9.3
2018-Apr-18 03:30N 50°54' E 001°31'11 8.9
2018-Apr-18 02:15N 50°44' E 001°23'12 9.2
2018-Apr-18 00:59N 50°36' E 001°11'4810.2
2018-Apr-17 20:18N 50°16' E 000°02'311.0
2018-Apr-17 20:00N 50°13' E 000°00'6 9.8
2018-Apr-17 19:27N 50°08' W 000°03'4 9.0
2018-Apr-17 19:00N 50°05' W 000°05'4 8.9
2018-Apr-17 18:30N 50°01' W 000°08'4 8.7
2018-Apr-17 18:00N 49°57' W 000°11'5 9.3
2018-Apr-17 17:30N 49°53' W 000°16'4 8.7
2018-Apr-17 17:00N 49°50' W 000°20'4 8.7
2018-Apr-17 16:30N 49°46' W 000°23'510.7
2018-Apr-17 16:00N 49°41' W 000°26'612.8
2018-Apr-17 15:30N 49°36' W 000°21'713.2
2018-Apr-17 15:00N 49°31' W 000°13'612.8
2018-Apr-17 14:30N 49°29' W 000°04'612.3
2018-Apr-17 14:00N 49°26' E 000°04'713.2
2018-Apr-17 13:30N 49°26' E 000°14'612.8
2018-Apr-17 13:01N 49°27' E 000°24'510.2
2018-Apr-17 12:31N 49°29' E 000°31'5 9.0
2018-Apr-17 12:00N 49°26' E 000°36'4 8.9
2018-Apr-17 11:30N 49°29' E 000°40'4 7.1
2018-Apr-17 11:00N 49°31' E 000°45'4 8.6
2018-Apr-17 10:31N 49°28' E 000°49'4 8.1
2018-Apr-17 10:00N 49°24' E 000°49'3 6.9
2018-Apr-17 09:30N 49°27' E 000°51'3 6.3
2018-Apr-17 09:01N 49°27' E 000°56'611.1
2018-Apr-17 08:30N 49°21' E 000°58'3 5.6
2018-Apr-17 07:58N 49°23' E 001°01'0 0.0
2018-Apr-17 07:22N 49°23' E 001°01'0 0.0
2018-Apr-17 06:58N 49°23' E 001°01'0 0.0
2018-Apr-17 06:28N 49°23' E 001°01'0 0.0
2018-Apr-17 05:58N 49°23' E 001°01'0 0.0
2018-Apr-17 05:28N 49°23' E 001°01'0 0.0
2018-Apr-17 04:58N 49°23' E 001°01'0 0.0
2018-Apr-17 04:28N 49°23' E 001°01'0 0.0
2018-Apr-17 03:58N 49°23' E 001°01'0 0.0
2018-Apr-17 03:28N 49°23' E 001°01'0 0.0
2018-Apr-17 02:58N 49°23' E 001°01'0 0.0
2018-Apr-17 02:22N 49°23' E 001°01'0 0.0
2018-Apr-17 01:58N 49°23' E 001°01'0 0.0
2018-Apr-17 01:28N 49°23' E 001°01'0 0.0
2018-Apr-17 00:52N 49°23' E 001°01'0 0.0
2018-Apr-17 00:25N 49°23' E 001°01'0 0.0
2018-Apr-16 23:58N 49°23' E 001°01'0 0.0
2018-Apr-16 23:28N 49°23' E 001°01'0 0.0
2018-Apr-16 22:58N 49°23' E 001°01'0 0.0
2018-Apr-16 22:28N 49°23' E 001°01'0 0.0
2018-Apr-16 21:58N 49°23' E 001°01'0 0.0
2018-Apr-16 21:28N 49°23' E 001°01'0 0.0
2018-Apr-16 20:58N 49°23' E 001°01'0 0.0
2018-Apr-16 20:28N 49°23' E 001°01'0 0.0
2018-Apr-16 19:58N 49°23' E 001°01'0 0.0
2018-Apr-16 19:28N 49°23' E 001°01'0 0.0
2018-Apr-16 18:58N 49°23' E 001°01'0 0.0
2018-Apr-16 18:28N 49°23' E 001°01'0 0.0
2018-Apr-16 17:55N 49°23' E 001°01'0 0.0
2018-Apr-16 17:28N 49°23' E 001°01'0 0.0
2018-Apr-16 16:58N 49°23' E 001°01'0 0.0
2018-Apr-16 16:28N 49°23' E 001°01'0 0.0
2018-Apr-16 15:58N 49°23' E 001°01'0 0.0
2018-Apr-16 15:28N 49°23' E 001°01'0 0.0
2018-Apr-16 14:58N 49°23' E 001°01'0 0.0
2018-Apr-16 14:22N 49°23' E 001°01'0 0.0
2018-Apr-16 13:58N 49°23' E 001°01'0 0.0
2018-Apr-16 13:28N 49°23' E 001°01'0 0.0
2018-Apr-16 12:58N 49°23' E 001°01'0 0.0
2018-Apr-16 12:28N 49°23' E 001°01'0 0.0
2018-Apr-16 11:58N 49°23' E 001°01'0 0.2
2018-Apr-16 11:31N 49°24' E 001°01'3 6.1
2018-Apr-16 11:00N 49°21' E 000°57'510.0
2018-Apr-16 10:30N 49°26' E 000°56'4 7.2
2018-Apr-16 10:00N 49°28' E 000°51'4 7.8
2018-Apr-16 09:30N 49°24' E 000°49'510.8
2018-Apr-16 09:00N 49°30' E 000°46'4 8.2
2018-Apr-16 08:30N 49°30' E 000°40'5 9.9
2018-Apr-16 08:00N 49°27' E 000°34'5 9.8
2018-Apr-16 07:30N 49°28' E 000°26'714.1
2018-Apr-16 07:00N 49°26' E 000°16'  

Dump ship's entire track history